Latest Weather Observations for Kununurra Airport

IDW60801

Issued at 11:35 pm WST Thursday 27 November 2014 (issued every 30 minutes, with the page automatically refreshed every 10 minutes)

About weather observations | Map of weather stations | Latest weather observations for WA | Other Formats
Station Details ID: 002056 Name: KUNUNURRA AERO Lat: -15.78 Lon: 128.71 Height: 44.0 m
Data from the previous 72 hours. | See also: Recent months at Kununurra Airport
Date/Time
WST
Temp
°C
App
Temp
°C
Dew
Point
Rel
Hum
%
Delta-T
°C
Wind Press
QNH
hPa
Press
MSL
hPa
Rain
since 9 am
mm
Dir
 
Spd
km/h
Gust
km/h
Spd
kts
Gust
kts
27/11:30pm 27.9 31.5 23.1 75 3.3 SE 9 11 5 6 1009.7 - 0.0
27/11:00pm 27.7 32.7 22.5 73 3.5 CALM 0 0 0 0 1009.7 - 0.0
27/10:30pm 27.6 32.1 21.6 70 4.0 CALM 0 0 0 0 1009.8 - 0.0
27/10:00pm 27.7 32.0 21.1 67 4.4 CALM 0 0 0 0 1010.3 - 0.0
27/09:30pm 27.1 30.9 21.7 72 3.6 SW 4 6 2 3 1010.3 - 0.0
27/09:00pm 27.1 30.1 21.2 70 3.9 NNW 7 11 4 6 1010.0 1009.7 0.0
27/08:30pm 27.7 30.1 20.8 66 4.6 N 9 11 5 6 1009.5 - 0.0
27/08:00pm 28.0 29.7 20.1 62 5.2 NNE 11 11 6 6 1009.0 - 0.0
27/07:30pm 28.4 30.0 20.0 60 5.5 N 11 13 6 7 1009.0 - 0.0
27/07:00pm 29.1 31.0 19.8 57 6.1 NNW 9 13 5 7 1008.9 - 0.0
27/06:30pm 30.0 31.8 19.5 53 6.9 NNW 9 11 5 6 1008.4 - 0.0
27/06:00pm 30.8 32.1 19.2 50 7.6 N 11 15 6 8 1007.6 1007.3 0.0
27/05:30pm 31.9 32.5 18.5 45 8.7 N 13 19 7 10 1007.2 - 0.0
27/05:00pm 33.5 32.8 17.3 38 10.4 N 17 24 9 13 1007.0 - 0.0
27/04:30pm 34.3 33.1 17.4 36 10.9 N 20 28 11 15 1006.7 - 0.0
27/04:00pm 34.7 34.1 17.5 36 11.1 N 17 24 9 13 1006.6 - 0.0
27/03:30pm 34.2 34.5 18.8 40 10.1 NNW 15 24 8 13 1006.6 - 0.0
27/03:00pm 34.8 34.9 20.0 42 9.9 N 19 24 10 13 1006.6 1006.2 0.0
27/02:30pm 34.1 33.8 19.6 42 9.6 N 20 32 11 17 1006.6 - 0.0
27/02:00pm 34.6 34.0 18.8 39 10.4 N 20 26 11 14 1007.0 - 0.0
27/01:30pm 34.3 34.8 19.2 41 10.0 NNW 15 19 8 10 1007.3 - 0.0
27/01:00pm 35.0 36.1 20.4 42 9.8 N 15 22 8 12 1008.0 - 0.0
27/12:30pm 34.6 35.6 22.1 48 8.6 N 20 32 11 17 1008.1 - 0.0
27/12:00pm 34.5 36.3 22.6 50 8.2 N 17 24 9 13 1008.7 1008.4 0.0
27/11:30am 31.8 32.6 23.1 60 6.0 N 24 28 13 15 1009.3 - 0.0
27/11:00am 30.7 30.9 22.8 62 5.4 N 26 32 14 17 1009.9 - 0.0
27/10:30am 30.7 30.8 23.2 64 5.2 N 28 33 15 18 1010.1 - 0.0
27/10:00am 33.7 34.5 21.7 49 8.2 N 20 26 11 14 1010.0 - 0.0
27/09:30am 32.5 34.0 21.2 51 7.6 N 15 22 8 12 1010.0 - 0.0
27/09:00am 32.3 34.8 21.7 53 7.2 N 11 17 6 9 1010.4 1010.1 0.0
27/08:30am 32.8 35.3 21.1 50 7.9 NW 9 19 5 10 1010.4 - 0.0
27/08:00am 31.5 35.0 21.9 56 6.5 NNE 6 9 3 5 1010.4 - 0.0
27/07:30am 30.9 35.1 23.1 63 5.4 NNE 6 9 3 5 1010.4 - 0.0
27/07:00am 29.6 34.2 23.2 68 4.4 ESE 4 7 2 4 1010.2 - 0.0
27/06:30am 27.7 32.3 24.2 81 2.4 SE 7 9 4 5 1009.9 - 0.0
27/06:00am 27.0 31.7 24.0 83 2.1 S 6 7 3 4 1009.7 1009.4 0.0
27/05:30am 26.6 31.0 23.5 83 2.1 ESE 6 7 3 4 1009.4 - 0.0
27/05:00am 25.6 30.1 23.6 89 1.4 E 6 7 3 4 1008.9 - 0.0
27/04:30am 25.3 30.5 23.5 90 1.2 SSW 2 6 1 3 1008.2 - 0.0
27/04:00am 24.9 29.6 23.4 91 1.0 N 4 7 2 4 1007.8 - 0.0
27/03:30am 25.2 28.6 23.4 90 1.2 NNW 11 13 6 7 1007.6 - 0.0
27/03:00am 24.9 28.7 23.4 91 1.0 NNE 9 11 5 6 1007.8 1007.5 0.0
27/02:30am 24.8 28.5 23.3 91 1.0 NNE 9 9 5 5 1007.3 - 0.0
27/02:00am 25.1 30.5 23.3 90 1.2 CALM 0 0 0 0 1007.2 - 0.0
27/01:30am 24.9 29.6 23.3 91 1.1 N 4 9 2 5 1007.5 - 0.0
27/01:00am 24.6 28.6 23.1 91 1.0 WNW 7 9 4 5 1007.4 - 0.0
27/12:30am 24.7 28.9 23.2 91 1.0 NNW 6 9 3 5 1007.5 - 0.0
27/12:00am 26.0 30.6 23.2 84 1.9 E 4 6 2 3 1007.9 1007.6 0.0
 
Date/Time
WST
Temp
°C
App
Temp
°C
Dew
Point
Rel
Hum
%
Delta-T
°C
Wind Press
QNH
hPa
Press
MSL
hPa
Rain
since 9 am
mm
Dir
 
Spd
km/h
Gust
km/h
Spd
kts
Gust
kts
26/11:30pm 26.0 30.1 23.2 84 1.9 E 7 9 4 5 1008.3 - 0.0
26/11:00pm 26.1 30.2 23.3 84 1.9 E 7 9 4 5 1008.4 - 0.0
26/10:30pm 26.1 29.7 23.0 83 2.1 E 9 11 5 6 1008.3 - 0.0
26/10:00pm 26.4 31.3 23.0 81 2.3 SSE 2 7 1 4 1008.3 - 0.0
26/09:30pm 25.9 30.1 22.5 81 2.3 S 4 9 2 5 1008.7 - 0.0
26/09:00pm 25.6 29.3 22.5 83 2.1 WNW 7 13 4 7 1008.9 1008.6 0.0
26/08:30pm 25.6 27.9 22.8 84 1.9 N 15 20 8 11 1008.8 - 0.0
26/08:00pm 27.6 27.0 20.6 65 4.6 N 24 28 13 15 1008.9 - 0.0
26/07:30pm 29.2 28.0 21.5 63 5.2 NNE 30 46 16 25 1008.7 - 0.0
26/07:27pm 29.5 28.4 21.0 60 5.7 NNE 28 46 15 25 1008.6 - 0.0
26/07:00pm 28.9 33.8 22.3 67 4.5 CALM 0 4 0 2 1007.4 - 0.0
26/06:30pm 29.0 29.0 21.6 64 5.0 E 24 35 13 19 1007.2 - 0.0
26/06:00pm 30.4 30.2 21.3 58 6.1 SSE 24 35 13 19 1006.7 1006.3 0.0
26/05:30pm 34.4 38.2 20.9 45 9.1 NNE 2 6 1 3 1005.5 - 0.0
26/05:00pm 34.8 37.3 20.2 42 9.8 NE 7 11 4 6 1005.3 - 0.0
26/04:30pm 35.4 37.9 19.8 40 10.4 E 6 9 3 5 1005.1 - 0.0
26/04:00pm 35.2 36.5 19.4 39 10.5 N 11 15 6 8 1004.8 - 0.0
26/03:30pm 34.8 36.1 19.3 40 10.2 N 11 13 6 7 1004.8 - 0.0
26/03:00pm 35.1 36.8 19.3 39 10.5 N 9 13 5 7 1004.7 1004.3 0.0
26/02:30pm 35.4 37.4 19.1 38 10.8 ESE 7 13 4 7 1005.3 - 0.0
26/02:00pm 35.5 36.8 19.2 38 10.8 S 11 15 6 8 1005.8 - 0.0
26/01:30pm 35.6 36.9 18.4 36 11.3 ENE 9 13 5 7 1006.3 - 0.0
26/01:00pm 35.0 34.6 18.9 38 10.6 SE 19 28 10 15 1006.5 - 0.0
26/12:30pm 35.4 35.7 19.5 39 10.6 E 17 28 9 15 1006.9 - 0.0
26/12:00pm 34.7 34.9 19.3 40 10.2 ESE 17 26 9 14 1007.2 1006.8 0.0
26/11:30am 34.2 33.7 19.2 41 9.9 SE 20 26 11 14 1007.5 - 0.0
26/11:00am 34.6 34.1 19.2 40 10.2 E 20 32 11 17 1008.1 - 0.0
26/10:30am 33.8 32.8 18.9 41 9.8 ESE 22 30 12 16 1008.5 - 0.0
26/10:00am 33.2 33.0 19.4 44 9.1 ESE 19 24 10 13 1008.8 - 0.0
26/09:30am 32.1 32.5 19.9 48 8.1 ESE 17 28 9 15 1009.1 - 0.0
26/09:00am 30.9 32.0 21.2 56 6.5 ESE 17 22 9 12 1009.6 1009.3 -
26/08:30am 29.9 30.8 20.9 58 6.0 ESE 17 20 9 11 1010.1 - -
26/08:00am 28.9 31.8 21.8 65 4.8 E 9 13 5 7 1010.3 - -
26/07:30am 27.2 30.3 22.9 77 2.9 ESE 11 15 6 8 1010.3 - -
26/07:00am 25.8 29.3 22.8 83 2.0 SSW 9 13 5 7 1010.4 - -
26/06:30am 24.8 27.9 22.9 89 1.3 SSW 11 17 6 9 1010.3 - -
26/06:00am 24.4 28.4 22.8 91 1.1 ENE 6 7 3 4 1010.1 1009.8 -
26/05:30am 23.9 27.7 22.4 91 1.0 N 6 7 3 4 1009.4 - -
26/04:30am 24.5 27.6 22.1 86 1.6 WSW 9 15 5 8 1009.1 - 12.8
26/04:00am 24.7 28.3 22.0 85 1.8 NW 6 9 3 5 1008.7 - 12.6
26/03:30am 24.5 27.7 22.4 88 1.4 NW 9 13 5 7 1008.6 - 12.0
26/03:00am 24.9 27.7 21.6 82 2.2 SSE 9 15 5 8 1008.3 1008.0 12.0
26/02:30am 24.5 27.3 22.3 87 1.5 S 11 15 6 8 1008.2 - 12.0
26/02:00am 24.5 26.5 22.3 87 1.5 SSE 15 20 8 11 1007.9 - 12.0
26/01:30am 25.0 27.7 22.8 87 1.5 SSE 13 22 7 12 1008.1 - 12.0
26/01:00am 24.8 26.3 23.0 90 1.2 SSE 20 22 11 12 1008.7 - 12.0
26/12:30am 24.8 28.7 23.0 90 1.2 S 7 9 4 5 1007.7 - 12.0
26/12:00am 24.9 28.7 22.7 87 1.5 SE 7 11 4 6 1008.2 1007.9 12.0
 
Date/Time
WST
Temp
°C
App
Temp
°C
Dew
Point
Rel
Hum
%
Delta-T
°C
Wind Press
QNH
hPa
Press
MSL
hPa
Rain
since 9 am
mm
Dir
 
Spd
km/h
Gust
km/h
Spd
kts
Gust
kts
25/11:30pm 24.4 28.2 22.8 91 1.1 ESE 7 9 4 5 1008.2 - 12.0
25/11:16pm 24.2 28.1 23.0 93 0.8 S 7 13 4 7 1008.3 - 12.0
25/11:00pm 24.4 26.9 22.5 89 1.3 E 13 19 7 10 1008.9 - 11.0
25/10:44pm 25.4 25.0 22.4 83 2.0 ENE 28 39 15 21 1009.1 - 3.0
25/10:39pm 27.6 26.6 21.3 68 4.2 E 28 46 15 25 1009.7 - 0.2
25/10:30pm 28.2 25.8 21.0 65 4.8 ENE 35 46 19 25 1009.8 - 0.2
25/10:15pm 29.9 29.6 22.6 65 5.0 ENE 28 46 15 25 1009.2 - 0.2
25/10:00pm 29.1 30.8 23.4 71 3.9 ENE 20 24 11 13 1009.1 - 0.2
25/09:30pm 28.2 31.2 22.6 71 3.8 N 11 15 6 8 1007.5 - 0.2
25/09:00pm 28.4 30.7 22.0 68 4.3 N 13 15 7 8 1007.4 1007.1 0.2
25/08:30pm 28.8 30.4 22.2 67 4.5 N 17 20 9 11 1007.3 - 0.2
25/08:00pm 28.9 30.7 21.8 65 4.8 N 15 19 8 10 1007.0 - 0.2
25/07:30pm 28.9 30.9 21.6 64 4.9 N 13 17 7 9 1006.4 - 0.2
25/07:00pm 28.9 30.3 21.0 62 5.3 N 15 19 8 10 1006.3 - 0.2
25/06:30pm 29.1 31.6 21.7 64 5.0 NNW 11 13 6 7 1006.2 - 0.2
25/06:00pm 29.8 31.4 21.5 61 5.6 N 15 20 8 11 1006.0 1005.6 0.2
25/05:30pm 31.5 33.9 21.6 55 6.7 NNW 11 15 6 8 1005.3 - 0.2
25/05:00pm 31.8 34.6 21.5 54 7.0 WNW 9 15 5 8 1004.5 - 0.2
25/04:30pm 32.6 35.6 21.9 53 7.3 W 9 13 5 7 1004.8 - 0.2
25/04:00pm 32.3 34.5 21.9 54 7.1 WNW 13 17 7 9 1005.1 - 0.2
25/03:30pm 33.1 35.3 20.4 47 8.5 SW 9 17 5 9 1005.2 - 0.2
25/03:00pm 33.7 36.0 19.9 44 9.2 SE 7 11 4 6 1005.1 1004.7 0.2
25/02:30pm 33.9 35.7 19.6 43 9.5 SSE 9 13 5 7 1005.1 - 0.2
25/02:00pm 34.2 36.0 19.6 42 9.7 S 9 13 5 7 1005.8 - 0.2
25/01:30pm 35.9 37.2 20.1 39 10.6 SSE 13 20 7 11 1006.1 - 0.2
25/01:00pm 36.9 37.3 20.7 39 11.0 ESE 19 26 10 14 1006.5 - 0.2
25/12:30pm 36.3 37.7 20.3 39 10.8 ESE 13 20 7 11 1007.0 - 0.2
25/12:00pm 35.5 37.7 21.1 43 9.8 ESE 11 17 6 9 1007.3 1007.0 0.2
25/11:30am 34.2 37.8 22.4 50 8.1 S 7 13 4 7 1007.5 - 0.2
25/11:00am 33.0 36.8 22.7 54 7.1 S 7 11 4 6 1008.4 - 0.2
25/10:30am 32.3 36.4 23.0 58 6.4 WSW 6 11 3 6 1008.9 - 0.0
25/10:00am 31.5 35.0 22.9 60 5.9 N 9 11 5 6 1009.7 - 0.0
25/09:30am 30.9 34.6 23.2 63 5.3 NNE 9 11 5 6 1010.2 - 0.0
25/09:00am 29.7 34.8 25.0 76 3.3 N 7 11 4 6 1010.5 1010.2 4.6
25/08:30am 29.8 34.6 24.5 73 3.7 ENE 7 11 4 6 1010.5 - 4.6
25/08:00am 29.1 34.9 23.9 73 3.6 CALM 0 0 0 0 1010.0 - 4.6
25/07:30am 28.6 35.2 25.3 82 2.3 CALM 0 6 0 3 1009.6 - 4.6
25/07:18am 28.3 34.9 25.8 86 1.8 S 2 7 1 4 1009.4 - 4.4
25/07:00am 28.5 34.1 25.4 83 2.2 SSE 6 7 3 4 1009.4 - 4.0
25/06:55am 28.9 34.7 25.1 80 2.7 SE 4 7 2 4 1009.3 - 3.0
25/06:30am 29.7 33.8 23.3 68 4.4 E 7 9 4 5 1009.3 - 1.8
25/06:00am 29.1 34.5 23.8 73 3.7 N 2 6 1 3 1008.9 1008.6 1.8
25/05:30am 28.6 33.4 24.1 76 3.1 E 6 7 3 4 1008.4 - 1.8
25/05:00am 28.1 33.2 24.7 82 2.4 E 6 6 3 3 1008.0 - 1.8
25/04:30am 28.3 34.2 24.1 78 2.9 CALM 0 0 0 0 1007.8 - 1.8
25/04:00am 28.3 32.9 23.8 76 3.1 SSE 6 7 3 4 1007.6 - 1.8
25/03:30am 28.4 31.9 22.8 71 3.8 NNE 9 11 5 6 1007.3 - 1.8
25/03:00am 28.1 33.8 23.8 77 3.0 CALM 0 6 0 3 1007.1 1006.7 1.8
25/02:30am 28.3 32.0 23.2 74 3.5 N 9 9 5 5 1006.9 - 1.8
25/02:00am 28.9 34.0 22.7 69 4.2 CALM 0 0 0 0 1006.9 - 1.8
25/01:30am 28.6 32.8 23.1 72 3.8 W 6 7 3 4 1007.1 - 1.8
25/01:00am 28.4 32.2 22.8 71 3.8 NW 7 7 4 4 1007.4 - 1.8
25/12:30am 28.5 32.6 22.9 71 3.8 NW 6 9 3 5 1007.7 - 1.8
25/12:00am 29.0 32.4 22.7 69 4.3 NNE 9 13 5 7 1008.3 1008.0 1.8

Other Formats:

Comma delimited format used in spreadsheet applications
http://www.bom.gov.au/fwo/IDW60801/IDW60801.94216.axf

JavaScript Object Notation format (JSON) in row-major order
http://www.bom.gov.au/fwo/IDW60801/IDW60801.94216.json